Time;durP1;ratioP1;P1;durP2;ratioP2;P2;SDS_P1;SDS_P2;PMS_P1;PMS_P2;Temp;Humidity;BMP_temperature;BMP_pressure;BME280_temperature;BME280_humidity;BME280_pressure;Samples;Min_cycle;Max_cycle;Signal;HPM_P1;HPM_P2
2022/06/27 00:02:25;;;;;;;9.40;4.60;;;;;;;-145.67;100.00;66521.78;4994783;28;20160;-72
2022/06/27 00:04:51;;;;;;;11.18;5.30;;;;;;;-145.67;100.00;66521.78;5006050;28;20045;-72
2022/06/27 00:07:18;;;;;;;9.65;4.90;;;;;;;-145.67;100.00;66521.78;4999981;28;20029;-72
2022/06/27 00:09:46;;;;;;;9.82;5.13;;;;;;;-145.67;100.00;66521.78;5006537;28;20035;-78
2022/06/27 00:12:14;;;;;;;9.57;4.70;;;;;;;-145.67;100.00;66521.78;5000968;28;20034;-77
2022/06/27 00:14:40;;;;;;;9.73;4.88;;;;;;;-145.67;100.00;66521.78;5003168;28;20064;-78
2022/06/27 00:17:05;;;;;;;10.55;5.22;;;;;;;-145.67;100.00;66521.78;4988099;28;20412;-76
2022/06/27 00:19:31;;;;;;;10.52;5.15;;;;;;;-145.67;100.00;66521.78;5002942;28;20160;-78
2022/06/27 00:21:57;;;;;;;16.02;5.22;;;;;;;-145.67;100.00;66521.78;5006283;28;20033;-72
2022/06/27 00:24:23;;;;;;;12.90;5.00;;;;;;;-145.67;100.00;66521.78;5011966;28;20552;-72
2022/06/27 00:26:49;;;;;;;10.40;5.38;;;;;;;-145.67;100.00;66521.78;5002178;28;20045;-72
2022/06/27 00:29:15;;;;;;;11.15;5.47;;;;;;;-145.67;100.00;66521.78;4972836;28;20196;-72
2022/06/27 00:31:41;;;;;;;12.80;5.30;;;;;;;-145.67;100.00;66521.78;4989470;28;20120;-78
2022/06/27 00:34:09;;;;;;;10.88;5.13;;;;;;;-145.67;100.00;66521.78;5000648;28;20072;-76
2022/06/27 00:36:35;;;;;;;10.60;5.07;;;;;;;-145.67;100.00;66521.78;4999104;28;20037;-72
2022/06/27 00:39:01;;;;;;;13.60;4.82;;;;;;;-145.67;100.00;66521.78;4999012;28;20042;-77
2022/06/27 00:41:26;;;;;;;10.35;5.20;;;;;;;-145.67;100.00;66521.78;4987678;28;20041;-78
2022/06/27 00:43:52;;;;;;;10.65;5.88;;;;;;;-145.67;100.00;66521.78;4999863;28;20156;-78
2022/06/27 00:46:17;;;;;;;8.45;5.30;;;;;;;-145.67;100.00;66521.78;4982969;28;20037;-78
2022/06/27 00:48:43;;;;;;;11.63;5.38;;;;;;;-145.67;100.00;66521.78;4985377;28;20084;-72
2022/06/27 00:51:09;;;;;;;8.32;5.53;;;;;;;-145.67;100.00;66521.78;5001548;28;20100;-72
2022/06/27 00:53:37;;;;;;;8.95;5.45;;;;;;;-145.67;100.00;66521.78;5001334;28;20393;-72
2022/06/27 00:56:04;;;;;;;8.07;5.70;;;;;;;-145.67;100.00;66521.78;4998666;28;20030;-72
2022/06/27 00:58:29;;;;;;;9.68;5.20;;;;;;;-145.67;100.00;66521.78;4985052;28;20421;-71
2022/06/27 01:00:55;;;;;;;8.52;5.70;;;;;;;-145.67;100.00;66521.78;5001480;28;20032;-76
2022/06/27 01:03:21;;;;;;;9.57;5.25;;;;;;;-145.67;100.00;66521.78;4998940;28;20065;-71
2022/06/27 01:05:51;;;;;;;9.50;5.22;;;;;;;-145.67;100.00;66521.78;4992980;28;20105;-72
2022/06/27 01:08:19;;;;;;;9.32;5.35;;;;;;;-145.67;100.00;66521.78;4998745;28;20060;-71
2022/06/27 01:10:45;;;;;;;9.82;5.53;;;;;;;-145.67;100.00;66521.78;5001393;28;20029;-77
2022/06/27 01:13:10;;;;;;;8.80;5.45;;;;;;;-145.67;100.00;66521.78;5015272;28;20029;-78
2022/06/27 01:15:36;;;;;;;10.02;5.53;;;;;;;-145.67;100.00;66521.78;4979233;28;20112;-72
2022/06/27 01:18:03;;;;;;;7.32;5.10;;;;;;;-145.67;100.00;66521.78;5016072;28;20041;-72
2022/06/27 01:20:28;;;;;;;9.18;5.68;;;;;;;-145.67;100.00;66521.78;5006250;28;20511;-78
2022/06/27 01:22:54;;;;;;;8.50;5.13;;;;;;;-145.67;100.00;66521.78;5004994;28;20487;-73
2022/06/27 01:25:20;;;;;;;10.20;5.78;;;;;;;-145.67;100.00;66521.78;5003202;28;20142;-72
2022/06/27 01:27:46;;;;;;;6.82;4.80;;;;;;;-145.67;100.00;66521.78;5008646;28;20327;-73
2022/06/27 01:30:12;;;;;;;11.00;5.38;;;;;;;-145.67;100.00;66521.78;4987207;28;20033;-72
2022/06/27 01:32:42;;;;;;;11.00;5.93;;;;;;;-145.67;100.00;66521.78;4988893;28;20040;-73
2022/06/27 01:35:08;;;;;;;11.55;6.55;;;;;;;-145.67;100.00;66521.78;4988387;28;20724;-72
2022/06/27 01:37:33;;;;;;;9.35;6.63;;;;;;;-145.67;100.00;66521.78;4998999;28;20038;-71
2022/06/27 01:40:00;;;;;;;12.82;7.60;;;;;;;-145.67;100.00;66521.78;5001044;28;20564;-77
2022/06/27 01:42:27;;;;;;;11.88;7.18;;;;;;;-145.67;100.00;66521.78;5001383;28;20029;-77
2022/06/27 01:44:52;;;;;;;15.25;7.90;;;;;;;-145.67;100.00;66521.78;5002123;28;20037;-77
2022/06/27 01:47:18;;;;;;;15.95;8.75;;;;;;;-145.67;100.00;66521.78;4994017;28;20060;-78
2022/06/27 01:49:44;;;;;;;15.32;8.32;;;;;;;-145.67;100.00;66521.78;4988391;28;20045;-78
2022/06/27 01:52:13;;;;;;;12.90;7.82;;;;;;;-145.67;100.00;66521.78;4990311;28;20034;-76
2022/06/27 01:54:39;;;;;;;13.05;8.40;;;;;;;-145.67;100.00;66521.78;5005875;28;20132;-77
2022/06/27 01:57:05;;;;;;;13.07;7.63;;;;;;;-145.67;100.00;66521.78;4989124;28;20108;-77
2022/06/27 01:59:32;;;;;;;12.63;8.23;;;;;;;-145.67;100.00;66521.78;5000420;28;20123;-78
2022/06/27 02:02:03;;;;;;;13.10;8.25;;;;;;;-145.67;100.00;66521.78;5001618;28;20064;-72
2022/06/27 02:04:30;;;;;;;16.30;8.80;;;;;;;-145.67;100.00;66521.78;4996422;28;20050;-78
2022/06/27 02:06:57;;;;;;;12.38;8.13;;;;;;;-145.67;100.00;66521.78;5014590;28;20126;-78
2022/06/27 02:09:23;;;;;;;12.23;7.68;;;;;;;-145.67;100.00;66521.78;5000364;28;20160;-78
2022/06/27 02:11:54;;;;;;;13.73;8.52;;;;;;;-145.67;100.00;66521.78;4978896;28;20069;-72
2022/06/27 02:14:20;;;;;;;12.60;8.25;;;;;;;-145.67;100.00;66521.78;4997681;28;20128;-77
2022/06/27 02:16:46;;;;;;;14.52;8.60;;;;;;;-145.67;100.00;66521.78;4988653;28;20989;-78
2022/06/27 02:19:17;;;;;;;17.70;9.18;;;;;;;-145.67;100.00;66521.78;4998893;28;20425;-72
2022/06/27 02:21:45;;;;;;;15.82;8.40;;;;;;;-145.67;100.00;66521.78;5000995;28;20120;-72
2022/06/27 02:24:11;;;;;;;15.82;9.35;;;;;;;-145.67;100.00;66521.78;4999605;28;20048;-77
2022/06/27 02:26:37;;;;;;;14.20;8.50;;;;;;;-145.67;100.00;66521.78;4997194;28;20108;-77
2022/06/27 02:29:03;;;;;;;11.60;8.35;;;;;;;-145.67;100.00;66521.78;5000180;28;20099;-76
2022/06/27 02:31:29;;;;;;;16.27;9.15;;;;;;;-145.67;100.00;66521.78;4986242;28;20052;-77
2022/06/27 02:33:57;;;;;;;14.90;9.32;;;;;;;-145.67;100.00;66521.78;5000625;28;20954;-76
2022/06/27 02:36:41;;;;;;;18.42;10.60;;;;;;;-145.67;100.00;66521.78;4995170;28;20034;-77
2022/06/27 02:39:10;;;;;;;13.10;9.73;;;;;;;-145.67;100.00;66521.78;4999874;28;20061;-78
2022/06/27 02:41:38;;;;;;;18.27;10.63;;;;;;;-145.67;100.00;66521.78;4996854;28;20061;-77
2022/06/27 02:44:08;;;;;;;18.08;11.80;;;;;;;-145.67;100.00;66521.78;4998265;28;20050;-77
2022/06/27 02:46:34;;;;;;;16.60;11.35;;;;;;;-145.67;100.00;66521.78;4998372;28;20064;-77
2022/06/27 02:49:00;;;;;;;16.45;11.00;;;;;;;-145.67;100.00;66521.78;4998776;28;20593;-77
2022/06/27 02:51:39;;;;;;;17.13;11.52;;;;;;;-145.67;100.00;66521.78;5000805;28;20072;-77
2022/06/27 02:54:11;;;;;;;23.48;12.38;;;;;;;-145.67;100.00;66521.78;5000037;28;20544;-78
2022/06/27 02:56:42;;;;;;;17.75;10.25;;;;;;;-145.67;100.00;66521.78;4986362;28;20040;-77
2022/06/27 02:59:19;;;;;;;16.52;9.65;;;;;;;-145.67;100.00;66521.78;4997820;28;20044;-78
2022/06/27 03:01:47;;;;;;;19.60;9.63;;;;;;;-145.67;100.00;66521.78;4998654;28;20104;-77
2022/06/27 03:04:13;;;;;;;16.23;10.63;;;;;;;-145.67;100.00;66521.78;5000602;28;20112;-75
2022/06/27 03:06:38;;;;;;;16.80;10.85;;;;;;;-145.67;100.00;66521.78;4999653;28;20725;-78
2022/06/27 03:09:04;;;;;;;21.65;10.63;;;;;;;-145.67;100.00;66521.78;4998507;28;20033;-77
2022/06/27 03:11:30;;;;;;;15.52;9.02;;;;;;;-145.67;100.00;66521.78;4999844;28;20275;-78
2022/06/27 03:13:56;;;;;;;15.45;9.20;;;;;;;-145.67;100.00;66521.78;4999479;28;20287;-75
2022/06/27 03:16:22;;;;;;;19.15;8.98;;;;;;;-145.67;100.00;66521.78;4995054;28;20103;-77
2022/06/27 03:18:49;;;;;;;19.38;9.20;;;;;;;-145.67;100.00;66521.78;4990833;28;20172;-77
2022/06/27 03:21:20;;;;;;;17.15;8.82;;;;;;;-145.67;100.00;66521.78;5004099;28;20098;-78
2022/06/27 03:23:46;;;;;;;15.85;9.38;;;;;;;-145.67;100.00;66521.78;5014668;28;20050;-77
2022/06/27 03:26:12;;;;;;;14.73;9.18;;;;;;;-145.67;100.00;66521.78;4991657;28;21503;-78
2022/06/27 03:28:38;;;;;;;16.60;10.10;;;;;;;-145.67;100.00;66521.78;5002213;28;20044;-77
2022/06/27 03:31:04;;;;;;;15.13;9.60;;;;;;;-145.67;100.00;66521.78;4991190;28;20037;-77
2022/06/27 03:33:30;;;;;;;17.17;9.65;;;;;;;-145.67;100.00;66521.78;5000349;28;20029;-79
2022/06/27 03:35:56;;;;;;;17.70;9.15;;;;;;;-145.67;100.00;66521.78;5005193;28;20704;-77
2022/06/27 03:38:21;;;;;;;17.77;9.80;;;;;;;-145.67;100.00;66521.78;5000926;28;20034;-78
2022/06/27 03:40:47;;;;;;;17.60;9.35;;;;;;;-145.67;100.00;66521.78;5003131;28;20033;-78
2022/06/27 03:43:13;;;;;;;16.48;9.35;;;;;;;-145.67;100.00;66521.78;5016993;28;20040;-78
2022/06/27 03:45:38;;;;;;;17.08;10.23;;;;;;;-145.67;100.00;66521.78;4998613;28;20038;-77
2022/06/27 03:48:04;;;;;;;18.80;9.73;;;;;;;-145.67;100.00;66521.78;4989575;28;20030;-78
2022/06/27 03:50:30;;;;;;;19.75;10.13;;;;;;;-145.67;100.00;66521.78;5015929;28;20673;-77
2022/06/27 03:52:56;;;;;;;19.67;11.02;;;;;;;-145.67;100.00;66521.78;4981175;28;20121;-77
2022/06/27 03:55:22;;;;;;;19.67;10.40;;;;;;;-145.67;100.00;66521.78;5001481;28;20193;-78
2022/06/27 03:57:50;;;;;;;14.55;10.20;;;;;;;-145.67;100.00;66521.78;4990579;28;20601;-78
2022/06/27 04:00:17;;;;;;;15.35;9.93;;;;;;;-145.67;100.00;66521.78;5007302;28;20041;-77
2022/06/27 04:02:43;;;;;;;17.58;10.27;;;;;;;-145.67;100.00;66521.78;4990450;28;20056;-78
2022/06/27 04:05:08;;;;;;;18.60;9.77;;;;;;;-145.67;100.00;66521.78;4999400;28;20576;-79
2022/06/27 04:07:34;;;;;;;17.77;10.27;;;;;;;-145.67;100.00;66521.78;4999525;28;20049;-79
2022/06/27 04:10:00;;;;;;;19.88;9.60;;;;;;;-145.67;100.00;66521.78;5002030;28;20319;-78
2022/06/27 04:12:25;;;;;;;14.32;9.30;;;;;;;-145.67;100.00;66521.78;5005342;28;20038;-77
2022/06/27 04:14:51;;;;;;;17.27;9.40;;;;;;;-145.67;100.00;66521.78;5001113;28;20128;-77
2022/06/27 04:17:17;;;;;;;14.35;8.88;;;;;;;-145.67;100.00;66521.78;4999577;28;20183;-78
2022/06/27 04:19:45;;;;;;;14.43;8.48;;;;;;;-145.67;100.00;66521.78;5000435;28;20462;-78
2022/06/27 04:22:13;;;;;;;13.50;8.55;;;;;;;-145.67;100.00;66521.78;5003416;28;20034;-78
2022/06/27 04:24:39;;;;;;;13.23;8.60;;;;;;;-145.67;100.00;66521.78;5002659;28;20064;-77
2022/06/27 04:27:04;;;;;;;16.48;9.02;;;;;;;-145.67;100.00;66521.78;4999264;28;20041;-76
2022/06/27 04:29:31;;;;;;;14.15;7.68;;;;;;;-145.67;100.00;66521.78;4984985;28;20041;-77
2022/06/27 04:31:57;;;;;;;14.30;8.23;;;;;;;-145.67;100.00;66521.78;5003287;28;20757;-76
2022/06/27 04:34:24;;;;;;;12.73;8.55;;;;;;;-145.67;100.00;66521.78;5002206;28;20040;-77
2022/06/27 04:36:52;;;;;;;13.63;8.25;;;;;;;-145.67;100.00;66521.78;5002108;28;20029;-77
2022/06/27 04:39:19;;;;;;;13.38;7.78;;;;;;;-145.67;100.00;66521.78;5000267;28;20030;-77
2022/06/27 04:41:46;;;;;;;15.75;8.25;;;;;;;-145.67;100.00;66521.78;5002558;28;20030;-77
2022/06/27 04:44:11;;;;;;;15.00;7.97;;;;;;;-145.67;100.00;66521.78;4988261;28;20038;-77
2022/06/27 04:46:38;;;;;;;17.15;7.65;;;;;;;-145.67;100.00;66521.78;4989523;28;20029;-78
2022/06/27 04:49:04;;;;;;;12.57;7.05;;;;;;;-145.67;100.00;66521.78;4986188;28;20036;-77
2022/06/27 04:51:30;;;;;;;27.63;10.43;;;;;;;-145.67;100.00;66521.78;4997760;28;20030;-77
2022/06/27 04:53:56;;;;;;;14.63;8.68;;;;;;;-145.67;100.00;66521.78;5002165;28;20038;-77
2022/06/27 04:56:25;;;;;;;11.80;6.60;;;;;;;-145.67;100.00;66521.78;5001400;28;20478;-77
2022/06/27 04:58:54;;;;;;;17.08;6.97;;;;;;;-145.67;100.00;66521.78;5002255;28;20287;-77
2022/06/27 05:01:22;;;;;;;13.60;7.07;;;;;;;-145.67;100.00;66521.78;5008068;28;20422;-77
2022/06/27 05:03:51;;;;;;;13.73;8.05;;;;;;;-145.67;100.00;66521.78;4998058;28;20299;-77
2022/06/27 05:06:18;;;;;;;13.10;8.15;;;;;;;-145.67;100.00;66521.78;4989296;28;20037;-77
2022/06/27 05:08:44;;;;;;;15.75;8.40;;;;;;;-145.67;100.00;66521.78;5001996;28;20444;-77
2022/06/27 05:11:11;;;;;;;18.08;9.38;;;;;;;-145.67;100.00;66521.78;4987048;28;20033;-77
2022/06/27 05:13:37;;;;;;;13.68;7.78;;;;;;;-145.67;100.00;66521.78;4995755;28;20040;-77
2022/06/27 05:16:03;;;;;;;12.57;7.70;;;;;;;-145.67;100.00;66521.78;5013125;28;20374;-77
2022/06/27 05:18:29;;;;;;;14.57;6.47;;;;;;;-145.67;100.00;66521.78;4997218;28;20121;-76
2022/06/27 05:20:55;;;;;;;12.27;5.47;;;;;;;-145.67;100.00;66521.78;4997026;28;20498;-76
2022/06/27 05:23:20;;;;;;;11.70;5.40;;;;;;;-145.67;100.00;66521.78;4999820;28;20042;-77
2022/06/27 05:25:46;;;;;;;12.82;5.32;;;;;;;-145.67;100.00;66521.78;4999699;28;20502;-77
2022/06/27 05:28:11;;;;;;;11.82;5.30;;;;;;;-145.67;100.00;66521.78;5002772;28;20037;-78
2022/06/27 05:30:37;;;;;;;16.08;5.65;;;;;;;-145.67;100.00;66521.78;4979003;28;20030;-77
2022/06/27 05:33:02;;;;;;;15.70;6.40;;;;;;;-145.67;100.00;66521.78;4999705;28;20080;-76
2022/06/27 05:35:29;;;;;;;13.27;5.80;;;;;;;-145.67;100.00;66521.78;4998399;28;20060;-76
2022/06/27 05:37:54;;;;;;;11.60;5.40;;;;;;;-145.67;100.00;66521.78;5014789;28;20041;-76
2022/06/27 05:40:21;;;;;;;21.02;7.20;;;;;;;-145.67;100.00;66521.78;5001556;28;20033;-76
2022/06/27 05:42:48;;;;;;;30.30;8.85;;;;;;;-145.67;100.00;66521.78;4999600;28;20402;-77
2022/06/27 05:45:14;;;;;;;27.77;6.88;;;;;;;-145.67;100.00;66521.78;5013442;28;20037;-77
2022/06/27 05:47:40;;;;;;;14.25;4.80;;;;;;;-145.67;100.00;66521.78;4997695;28;20042;-77
2022/06/27 05:50:07;;;;;;;11.18;4.32;;;;;;;-145.67;100.00;66521.78;4999175;28;20142;-78
2022/06/27 05:52:33;;;;;;;13.65;5.80;;;;;;;-145.67;100.00;66521.78;4986887;28;20025;-77
2022/06/27 05:54:59;;;;;;;16.60;6.20;;;;;;;-145.67;100.00;66521.78;4997172;28;20040;-78
2022/06/27 05:57:26;;;;;;;16.05;6.60;;;;;;;-145.67;100.00;66521.78;4998807;28;20033;-78
2022/06/27 05:59:53;;;;;;;17.15;6.68;;;;;;;-145.67;100.00;66521.78;4999137;28;21477;-77
2022/06/27 06:02:20;;;;;;;15.13;6.78;;;;;;;-145.67;100.00;66521.78;4998661;28;20052;-77
2022/06/27 06:04:48;;;;;;;17.92;7.03;;;;;;;-145.67;100.00;66521.78;4996933;28;20065;-77
2022/06/27 06:07:16;;;;;;;12.73;6.47;;;;;;;-145.67;100.00;66521.78;5001753;28;20425;-77
2022/06/27 06:09:45;;;;;;;11.00;5.97;;;;;;;-145.67;100.00;66521.78;4962540;28;20037;-78
2022/06/27 06:12:12;;;;;;;17.38;6.93;;;;;;;-145.67;100.00;66521.78;5001148;28;20476;-78
2022/06/27 06:14:38;;;;;;;21.52;7.25;;;;;;;-145.67;100.00;66521.78;5006221;28;20196;-78
2022/06/27 06:17:04;;;;;;;17.50;6.85;;;;;;;-145.67;100.00;66521.78;5002828;28;20105;-78
2022/06/27 06:19:31;;;;;;;14.02;7.00;;;;;;;-145.67;100.00;66521.78;4999388;28;20029;-78
2022/06/27 06:21:58;;;;;;;14.88;6.40;;;;;;;-145.67;100.00;66521.78;5002465;28;20025;-77
2022/06/27 06:24:24;;;;;;;22.40;8.82;;;;;;;-145.67;100.00;66521.78;4989705;28;20418;-77
2022/06/27 06:26:53;;;;;;;26.13;9.38;;;;;;;-145.67;100.00;66521.78;5001486;28;20030;-76
2022/06/27 06:29:21;;;;;;;30.02;9.82;;;;;;;-145.67;100.00;66521.78;5001720;28;20033;-77
2022/06/27 06:31:47;;;;;;;27.10;10.85;;;;;;;-145.67;100.00;66521.78;5000708;28;20044;-77
2022/06/27 06:34:13;;;;;;;24.25;7.38;;;;;;;-145.67;100.00;66521.78;5001417;28;20646;-77
2022/06/27 06:36:39;;;;;;;15.27;6.60;;;;;;;-145.67;100.00;66521.78;4999932;28;20053;-76
2022/06/27 06:39:08;;;;;;;14.70;6.55;;;;;;;-145.67;100.00;66521.78;4996721;28;20375;-77
2022/06/27 06:41:37;;;;;;;14.23;5.97;;;;;;;-145.67;100.00;66521.78;4994341;28;20616;-76
2022/06/27 06:44:08;;;;;;;12.90;6.13;;;;;;;-145.67;100.00;66521.78;4987967;28;20104;-77
2022/06/27 06:46:34;;;;;;;12.90;5.80;;;;;;;-145.67;100.00;66521.78;4998393;28;20132;-74
2022/06/27 06:49:04;;;;;;;11.05;5.70;;;;;;;-145.67;100.00;66521.78;5002403;28;20057;-75
2022/06/27 06:51:34;;;;;;;11.05;5.50;;;;;;;-145.67;100.00;66521.78;5003274;28;20920;-75
2022/06/27 06:54:01;;;;;;;12.82;5.95;;;;;;;-145.67;100.00;66521.78;4993420;28;20494;-74
2022/06/27 06:56:28;;;;;;;12.45;5.25;;;;;;;-145.67;100.00;66521.78;4982612;28;20410;-75
2022/06/27 06:58:54;;;;;;;8.45;5.18;;;;;;;-145.67;100.00;66521.78;5003909;28;20136;-75
2022/06/27 07:01:20;;;;;;;12.27;5.75;;;;;;;-145.67;100.00;66521.78;5006040;28;20083;-75
2022/06/27 07:03:48;;;;;;;12.13;5.88;;;;;;;-145.67;100.00;66521.78;5003850;28;20116;-74
2022/06/27 07:06:15;;;;;;;14.25;6.60;;;;;;;-145.67;100.00;66521.78;4990898;28;20038;-72
2022/06/27 07:08:45;;;;;;;14.20;5.65;;;;;;;-145.67;100.00;66521.78;5002633;28;20265;-75
2022/06/27 07:11:13;;;;;;;11.27;6.05;;;;;;;-145.67;100.00;66521.78;5007198;28;20026;-75
2022/06/27 07:13:39;;;;;;;11.07;6.05;;;;;;;-145.67;100.00;66521.78;5002563;28;20128;-75
2022/06/27 07:16:05;;;;;;;12.05;5.82;;;;;;;-145.67;100.00;66521.78;5003297;28;20069;-75
2022/06/27 07:18:32;;;;;;;10.75;5.78;;;;;;;-145.67;100.00;66521.78;4980209;28;20037;-75
2022/06/27 07:20:58;;;;;;;14.30;6.38;;;;;;;-145.67;100.00;66521.78;5002356;28;20119;-75
2022/06/27 07:23:26;;;;;;;12.10;6.13;;;;;;;-145.67;100.00;66521.78;4989895;28;20034;-75
2022/06/27 07:25:52;;;;;;;10.40;6.07;;;;;;;-145.67;100.00;66521.78;4990647;28;22565;-72
2022/06/27 07:28:22;;;;;;;8.60;5.18;;;;;;;-145.67;100.00;66521.78;5002696;28;21877;-72
2022/06/27 07:30:48;;;;;;;10.85;6.25;;;;;;;-145.67;100.00;66521.78;5003026;28;20176;-71
2022/06/27 07:33:14;;;;;;;10.70;5.53;;;;;;;-145.67;100.00;66521.78;5002345;28;20039;-71
2022/06/27 07:35:43;;;;;;;10.05;6.18;;;;;;;-145.67;100.00;66521.78;4997478;28;20103;-72
2022/06/27 07:38:08;;;;;;;9.27;5.32;;;;;;;-145.67;100.00;66521.78;4996167;28;20033;-71
2022/06/27 07:40:44;;;;;;;8.63;5.47;;;;;;;-145.67;100.00;66521.78;4983398;28;20071;-72
2022/06/27 07:43:14;;;;;;;10.07;5.28;;;;;;;-145.67;100.00;66521.78;5005770;28;20125;-71
2022/06/27 07:45:43;;;;;;;9.40;5.13;;;;;;;-145.67;100.00;66521.78;4982491;28;20045;-72
2022/06/27 07:48:09;;;;;;;8.00;4.65;;;;;;;-145.67;100.00;66521.78;5001500;28;20087;-72
2022/06/27 07:50:37;;;;;;;13.48;4.90;;;;;;;-145.67;100.00;66521.78;4989554;28;20026;-72
2022/06/27 07:53:20;;;;;;;8.27;4.63;;;;;;;-145.67;100.00;66521.78;5000423;28;20033;-72
2022/06/27 07:55:57;;;;;;;6.97;4.57;;;;;;;-145.67;100.00;66521.78;5003103;28;20557;-71
2022/06/27 07:58:30;;;;;;;11.90;4.80;;;;;;;-145.67;100.00;66521.78;5006414;28;20517;-72
2022/06/27 08:01:03;;;;;;;13.93;5.00;;;;;;;-145.67;100.00;66521.78;5003252;28;20142;-72
2022/06/27 08:03:47;;;;;;;8.85;4.88;;;;;;;-145.67;100.00;66521.78;5017526;28;20053;-72
2022/06/27 08:06:14;;;;;;;10.85;5.55;;;;;;;-145.67;100.00;66521.78;5002598;28;20037;-72
2022/06/27 08:08:50;;;;;;;10.27;5.78;;;;;;;-145.67;100.00;66521.78;5001695;28;20044;-71
2022/06/27 08:11:23;;;;;;;12.48;5.65;;;;;;;-145.67;100.00;66521.78;5003226;28;20062;-72
2022/06/27 08:13:50;;;;;;;10.43;5.45;;;;;;;-145.67;100.00;66521.78;5001679;28;20048;-72
2022/06/27 08:16:18;;;;;;;12.02;6.20;;;;;;;-145.67;100.00;66521.78;5007076;28;20049;-72
2022/06/27 08:18:46;;;;;;;10.90;6.30;;;;;;;-145.67;100.00;66521.78;4995850;28;20090;-73
2022/06/27 08:21:14;;;;;;;11.75;6.40;;;;;;;-145.67;100.00;66521.78;5004454;28;20030;-73
2022/06/27 08:23:39;;;;;;;10.95;6.75;;;;;;;-145.67;100.00;66521.78;4999789;28;20056;-73
2022/06/27 08:26:08;;;;;;;15.95;7.07;;;;;;;-145.67;100.00;66521.78;5004682;28;21887;-73
2022/06/27 08:28:37;;;;;;;9.40;6.07;;;;;;;-145.67;100.00;66521.78;5002337;28;20048;-73
2022/06/27 08:31:04;;;;;;;12.93;6.00;;;;;;;-145.67;100.00;66521.78;5006345;28;20147;-73
2022/06/27 08:33:31;;;;;;;11.23;6.13;;;;;;;-145.67;100.00;66521.78;4973511;28;20041;-73
2022/06/27 08:35:58;;;;;;;9.35;5.53;;;;;;;-145.67;100.00;66521.78;5005595;28;20401;-73
2022/06/27 08:38:24;;;;;;;10.85;6.45;;;;;;;-145.67;100.00;66521.78;5001018;28;20138;-73
2022/06/27 08:40:52;;;;;;;10.98;7.10;;;;;;;-145.67;100.00;66521.78;4988129;28;20049;-73
2022/06/27 08:43:21;;;;;;;10.80;7.00;;;;;;;-145.67;100.00;66521.78;4990501;28;20036;-72
2022/06/27 08:45:47;;;;;;;13.27;7.97;;;;;;;-145.67;100.00;66521.78;5002606;28;20120;-72
2022/06/27 08:48:14;;;;;;;15.02;7.75;;;;;;;-145.67;100.00;66521.78;5001418;28;20033;-72
2022/06/27 08:50:41;;;;;;;10.57;6.65;;;;;;;-145.67;100.00;66521.78;5002278;28;20046;-71
2022/06/27 08:53:07;;;;;;;11.02;7.25;;;;;;;-145.67;100.00;66521.78;4999077;28;20125;-71
2022/06/27 08:55:33;;;;;;;10.75;6.50;;;;;;;-145.67;100.00;66521.78;5013557;28;20034;-72
2022/06/27 08:58:10;;;;;;;10.65;6.70;;;;;;;-145.67;100.00;66521.78;5014451;28;21088;-72
2022/06/27 09:00:37;;;;;;;11.70;6.70;;;;;;;-145.67;100.00;66521.78;5005037;28;20040;-73
2022/06/27 09:03:03;;;;;;;10.20;6.32;;;;;;;-145.67;100.00;66521.78;5002425;28;20385;-72
2022/06/27 09:05:33;;;;;;;10.95;6.40;;;;;;;-145.67;100.00;66521.78;4995153;28;20060;-73
2022/06/27 09:08:02;;;;;;;11.52;6.75;;;;;;;-145.67;100.00;66521.78;4997869;28;20871;-73
2022/06/27 09:10:30;;;;;;;12.00;7.50;;;;;;;-145.67;100.00;66521.78;5000649;28;20070;-71
2022/06/27 09:13:08;;;;;;;11.80;7.25;;;;;;;-145.67;100.00;66521.78;4997863;28;20037;-73
2022/06/27 09:15:40;;;;;;;9.65;7.28;;;;;;;-145.67;100.00;66521.78;5000949;28;20029;-72
2022/06/27 09:18:08;;;;;;;11.73;7.65;;;;;;;-145.67;100.00;66521.78;4995677;28;20037;-72
2022/06/27 09:20:55;;;;;;;11.18;7.30;;;;;;;-145.67;100.00;66521.78;4995394;28;20455;-72
2022/06/27 09:23:39;;;;;;;11.27;7.93;;;;;;;-145.67;100.00;66521.78;4997483;28;20462;-74
2022/06/27 09:26:28;;;;;;;12.10;8.05;;;;;;;-145.67;100.00;66521.78;5000822;28;20033;-74
2022/06/27 09:29:01;;;;;;;13.00;8.50;;;;;;;-145.67;100.00;66521.78;4997825;28;20037;-73
2022/06/27 09:31:28;;;;;;;14.50;9.20;;;;;;;-145.67;100.00;66521.78;4999781;28;20469;-72
2022/06/27 09:34:25;;;;;;;19.23;9.45;;;;;;;-145.67;100.00;66521.78;4999899;28;20128;-73
2022/06/27 09:36:59;;;;;;;15.35;9.43;;;;;;;-145.67;100.00;66521.78;4998250;28;20427;-73
2022/06/27 09:39:33;;;;;;;10.48;8.32;;;;;;;-145.67;100.00;66521.78;5000322;28;20104;-72
2022/06/27 09:42:10;;;;;;;12.00;8.68;;;;;;;-145.67;100.00;66521.78;4999099;28;20040;-72
2022/06/27 09:44:45;;;;;;;14.38;8.98;;;;;;;-145.67;100.00;66521.78;4995218;28;20126;-72
2022/06/27 09:47:15;;;;;;;12.15;9.15;;;;;;;-145.67;100.00;66521.78;4997254;28;20498;-73
2022/06/27 09:49:44;;;;;;;17.38;9.88;;;;;;;-145.67;100.00;66521.78;5001256;28;20454;-71
2022/06/27 09:52:36;;;;;;;11.90;8.27;;;;;;;-145.67;100.00;66521.78;5000323;28;20072;-72
2022/06/27 09:55:06;;;;;;;12.48;8.02;;;;;;;-145.67;100.00;66521.78;4952289;28;20088;-72
2022/06/27 09:57:34;;;;;;;10.02;7.90;;;;;;;-145.67;100.00;66521.78;4954029;28;20038;-72
2022/06/27 10:00:00;;;;;;;15.65;7.90;;;;;;;-145.67;100.00;66521.78;4964345;28;20455;-73
2022/06/27 10:02:26;;;;;;;12.20;8.52;;;;;;;-145.67;100.00;66521.78;4939744;28;20161;-72
2022/06/27 10:04:54;;;;;;;12.90;9.05;;;;;;;-145.67;100.00;66521.78;4963214;28;20068;-72
2022/06/27 10:07:24;;;;;;;16.15;9.43;;;;;;;-145.67;100.00;66521.78;4961948;28;20535;-73
2022/06/27 10:09:55;;;;;;;11.90;8.55;;;;;;;-145.67;100.00;66521.78;4953249;28;20555;-73
2022/06/27 10:12:27;;;;;;;12.82;9.48;;;;;;;-145.67;100.00;66521.78;4963437;28;20467;-72
2022/06/27 10:15:10;;;;;;;15.77;9.48;;;;;;;-145.67;100.00;66521.78;4963110;28;20038;-73
2022/06/27 10:17:41;;;;;;;12.48;8.65;;;;;;;-145.67;100.00;66521.78;4960899;28;20050;-72
2022/06/27 10:20:08;;;;;;;15.35;9.57;;;;;;;-145.67;100.00;66521.78;4960495;28;20030;-72
2022/06/27 10:22:33;;;;;;;11.77;9.50;;;;;;;-145.67;100.00;66521.78;4961369;28;20057;-73
2022/06/27 10:25:27;;;;;;;18.55;10.48;;;;;;;-145.67;100.00;66521.78;4938908;28;20054;-73
2022/06/27 10:28:12;;;;;;;13.38;9.38;;;;;;;-145.67;100.00;66521.78;4998894;28;20270;-73
2022/06/27 10:30:38;;;;;;;11.82;9.23;;;;;;;-145.67;100.00;66521.78;4997171;28;20069;-73
2022/06/27 10:33:25;;;;;;;16.33;10.15;;;;;;;-145.67;100.00;66521.78;5013107;28;20037;-72
2022/06/27 10:38:22;;;;;;;;;;;;;;;-145.67;100.00;66521.78;4999793;28;20297;-73
2022/06/27 10:40:47;;;;;;;14.15;9.63;;;;;;;-145.67;100.00;66521.78;4997611;28;19917;-73
2022/06/27 10:43:38;;;;;;;13.93;9.77;;;;;;;-145.67;100.00;66521.78;4979830;28;20703;-73
2022/06/27 10:46:24;;;;;;;14.57;10.67;;;;;;;-145.67;100.00;66521.78;4998895;28;20056;-73
2022/06/27 10:48:54;;;;;;;14.48;11.13;;;;;;;-145.67;100.00;66521.78;4999502;28;20195;-73
2022/06/27 10:51:46;;;;;;;16.52;11.52;;;;;;;-145.67;100.00;66521.78;5001139;28;20814;-73
2022/06/27 10:54:12;;;;;;;16.80;10.65;;;;;;;-145.67;100.00;66521.78;4993503;28;20533;-72
2022/06/27 10:56:47;;;;;;;13.55;9.25;;;;;;;-145.67;100.00;66521.78;4998030;28;20295;-73
2022/06/27 10:59:13;;;;;;;16.25;8.35;;;;;;;-145.67;100.00;66521.78;5011780;28;20060;-74
2022/06/27 11:01:49;;;;;;;12.13;6.57;;;;;;;-145.67;100.00;66521.78;5008150;28;20099;-73
2022/06/27 11:04:32;;;;;;;11.35;6.70;;;;;;;-145.67;100.00;66521.78;4994405;28;20145;-73
2022/06/27 11:07:00;;;;;;;10.45;6.68;;;;;;;-145.67;100.00;66521.78;4995484;28;20037;-73
2022/06/27 11:09:45;;;;;;;11.18;7.13;;;;;;;-145.67;100.00;66521.78;4993345;28;20056;-73
2022/06/27 11:12:16;;;;;;;12.30;9.32;;;;;;;-145.67;100.00;66521.78;4993304;28;20052;-74